Time;durP1;ratioP1;P1;durP2;ratioP2;P2;SDS_P1;SDS_P2;PMS_P1;PMS_P2;Temp;Humidity;BMP_temperature;BMP_pressure;BME280_temperature;BME280_humidity;BME280_pressure;Samples;Min_cycle;Max_cycle;Signal;HPM_P1;HPM_P2
2022/10/16 00:00:58;;;;;;;1.17;0.70;;;;;;;12.07;100.00;100769.16;6225498;28;20061;-71
2022/10/16 00:04:01;;;;;;;1.67;0.63;;;;;;;12.04;100.00;100761.47;6225165;28;20072;-72
2022/10/16 00:07:03;;;;;;;1.50;0.70;;;;;;;11.98;100.00;100761.81;6225449;28;20050;-72
2022/10/16 00:10:04;;;;;;;0.82;0.65;;;;;;;11.91;100.00;100759.56;6225555;28;20057;-72
2022/10/16 00:13:06;;;;;;;1.13;0.65;;;;;;;11.86;100.00;100758.97;6225428;28;20058;-72
2022/10/16 00:16:10;;;;;;;1.02;0.60;;;;;;;11.85;100.00;100772.22;6225391;28;20046;-72
2022/10/16 00:19:12;;;;;;;0.93;0.70;;;;;;;11.81;100.00;100770.66;6225319;28;20050;-72
2022/10/16 00:22:13;;;;;;;0.98;0.68;;;;;;;11.84;100.00;100781.06;6225253;28;20049;-72
2022/10/16 00:25:15;;;;;;;0.80;0.60;;;;;;;11.82;100.00;100778.53;6224900;28;20057;-72
2022/10/16 00:28:16;;;;;;;0.68;0.60;;;;;;;11.81;100.00;100783.81;6225206;28;20057;-72
2022/10/16 00:31:21;;;;;;;0.73;0.65;;;;;;;11.81;100.00;100783.81;6224741;28;20414;-71
2022/10/16 00:34:22;;;;;;;1.40;0.60;;;;;;;11.78;100.00;100778.75;6224563;28;20421;-72
2022/10/16 00:37:24;;;;;;;1.60;0.70;;;;;;;11.76;100.00;100796.41;6225136;28;20049;-71
2022/10/16 00:40:25;;;;;;;0.90;0.70;;;;;;;11.73;100.00;100800.09;6224685;28;20054;-72
2022/10/16 00:43:37;;;;;;;0.45;0.45;;;;;;;11.75;100.00;100794.72;6224886;28;20054;-71
2022/10/16 00:46:42;;;;;;;0.90;0.65;;;;;;;11.74;100.00;100793.88;6224337;28;20049;-72
2022/10/16 00:49:43;;;;;;;0.70;0.50;;;;;;;11.74;100.00;100799.13;6224737;28;20057;-72
2022/10/16 00:52:47;;;;;;;0.90;0.65;;;;;;;11.75;100.00;100790.28;6224433;28;20045;-72
2022/10/16 00:55:49;;;;;;;0.55;0.45;;;;;;;11.78;100.00;100800.66;6224458;28;20050;-72
2022/10/16 00:58:50;;;;;;;0.95;0.55;;;;;;;11.81;100.00;100805.75;6224456;28;20050;-72
2022/10/16 01:01:54;;;;;;;0.75;0.47;;;;;;;11.86;100.00;100811.66;6224210;28;20058;-72
2022/10/16 01:04:56;;;;;;;1.40;0.80;;;;;;;11.90;100.00;100807.91;6223982;28;20050;-72
2022/10/16 01:08:05;;;;;;;0.45;0.45;;;;;;;11.92;100.00;100810.44;6224552;28;20046;-72
2022/10/16 01:11:15;;;;;;;0.75;0.63;;;;;;;11.95;100.00;100815.53;6223988;28;20054;-72
2022/10/16 01:14:23;;;;;;;1.33;0.80;;;;;;;11.96;100.00;100803.22;6223826;28;20406;-72
2022/10/16 01:17:35;;;;;;;1.25;0.80;;;;;;;12.00;100.00;100812.63;6223940;28;20046;-72
2022/10/16 01:20:43;;;;;;;2.90;0.95;;;;;;;12.02;100.00;100816.00;6223881;28;20046;-72
2022/10/16 01:23:58;;;;;;;1.50;1.10;;;;;;;12.06;100.00;100813.09;6223497;28;20053;-72
2022/10/16 01:27:13;;;;;;;2.10;0.90;;;;;;;12.13;100.00;100818.88;6223704;28;20457;-72
2022/10/16 01:30:21;;;;;;;2.97;1.38;;;;;;;12.15;100.00;100817.00;6223481;28;20067;-72
2022/10/16 01:33:27;;;;;;;1.83;1.10;;;;;;;12.19;100.00;100822.00;6223494;28;20413;-72
2022/10/16 01:36:37;;;;;;;3.30;1.40;;;;;;;12.21;100.00;100819.25;6223237;28;20054;-72
2022/10/16 01:39:43;;;;;;;8.02;1.50;;;;;;;12.21;100.00;100816.63;6223385;28;20509;-72
2022/10/16 01:42:50;;;;;;;2.08;1.20;;;;;;;12.28;100.00;100825.03;6222926;28;20054;-72
2022/10/16 01:45:53;;;;;;;2.40;1.30;;;;;;;12.29;100.00;100822.28;6223051;28;20045;-72
2022/10/16 01:48:55;;;;;;;1.35;1.05;;;;;;;12.26;100.00;100818.97;6223307;28;20510;-71
2022/10/16 01:52:01;;;;;;;1.55;1.05;;;;;;;12.25;100.00;100814.66;6222801;28;20054;-72
2022/10/16 01:55:07;;;;;;;2.05;1.40;;;;;;;12.21;100.00;100807.88;6222966;28;20057;-72
2022/10/16 01:58:11;;;;;;;2.83;1.63;;;;;;;12.16;100.00;100805.50;6223287;28;20053;-72
2022/10/16 02:01:15;;;;;;;4.78;1.73;;;;;;;12.12;100.00;100804.84;6222693;28;20056;-72
2022/10/16 02:04:22;;;;;;;2.88;1.45;;;;;;;12.10;100.00;100812.00;6222540;28;20045;-71
2022/10/16 02:07:23;;;;;;;5.32;1.70;;;;;;;12.04;100.00;100798.34;6222976;28;20050;-72
2022/10/16 02:10:30;;;;;;;1.50;1.27;;;;;;;12.00;100.00;100810.00;6222632;28;20053;-72
2022/10/16 02:13:38;;;;;;;2.08;1.35;;;;;;;11.95;100.00;100822.59;6222836;28;20046;-71
2022/10/16 02:16:42;;;;;;;1.83;1.40;;;;;;;11.89;100.00;100829.88;6222435;28;20050;-72
2022/10/16 02:19:47;;;;;;;3.35;1.50;;;;;;;11.85;100.00;100835.41;6222393;28;20056;-72
2022/10/16 02:22:51;;;;;;;4.00;1.05;;;;;;;11.79;100.00;100833.09;6222638;28;20046;-72
2022/10/16 02:25:55;;;;;;;3.17;1.50;;;;;;;11.77;100.00;100835.00;6222170;28;20049;-71
2022/10/16 02:29:04;;;;;;;2.47;1.38;;;;;;;11.73;100.00;100838.72;6222602;28;20421;-72
2022/10/16 02:32:06;;;;;;;;;;;;;;;11.70;100.00;100839.75;6222565;28;20053;-72
2022/10/16 02:35:09;;;;;;;1.67;1.20;;;;;;;11.65;100.00;100844.41;6222093;28;20419;-72
2022/10/16 02:38:12;;;;;;;2.38;1.52;;;;;;;11.61;100.00;100825.31;6222433;28;20100;-72
2022/10/16 02:41:15;;;;;;;2.13;1.10;;;;;;;11.59;100.00;100816.66;6222056;28;20049;-72
2022/10/16 02:44:17;;;;;;;2.20;1.50;;;;;;;11.58;100.00;100835.16;6221411;28;20417;-72
2022/10/16 02:47:19;;;;;;;2.53;1.50;;;;;;;11.55;100.00;100836.19;6222061;28;20057;-72
2022/10/16 02:50:20;;;;;;;5.90;1.83;;;;;;;11.52;100.00;100819.72;6221944;28;20057;-72
2022/10/16 02:53:22;;;;;;;2.65;1.40;;;;;;;11.48;100.00;100826.94;6221224;28;20725;-72
2022/10/16 02:56:23;;;;;;;3.40;1.67;;;;;;;11.45;100.00;100836.81;6217722;28;20050;-72
2022/10/16 02:59:26;;;;;;;1.80;1.30;;;;;;;11.48;100.00;100828.72;6221990;28;20088;-72
2022/10/16 03:02:27;;;;;;;2.17;1.30;;;;;;;11.46;100.00;100826.19;6221542;28;20509;-72
2022/10/16 03:05:29;;;;;;;2.75;1.40;;;;;;;11.46;100.00;100834.06;6220760;28;20056;-72
2022/10/16 03:08:30;;;;;;;2.67;1.40;;;;;;;11.41;100.00;100834.34;6221881;28;20605;-72
2022/10/16 03:11:32;;;;;;;2.40;1.67;;;;;;;11.41;100.00;100829.06;6221494;28;20049;-72
2022/10/16 03:14:34;;;;;;;2.58;1.70;;;;;;;11.42;100.00;100832.53;6221608;28;20054;-72
2022/10/16 03:17:36;;;;;;;2.63;1.80;;;;;;;11.44;100.00;100835.91;6221825;28;20054;-72
2022/10/16 03:20:37;;;;;;;2.63;1.50;;;;;;;11.48;100.00;100826.94;6221389;28;20398;-72
2022/10/16 03:23:39;;;;;;;2.00;1.38;;;;;;;11.48;100.00;100824.28;6221783;28;20054;-72
2022/10/16 03:26:40;;;;;;;6.85;1.42;;;;;;;11.46;100.00;100833.22;6221112;28;20049;-72
2022/10/16 03:29:43;;;;;;;2.97;1.48;;;;;;;11.45;100.00;100832.38;6221361;28;20061;-72
2022/10/16 03:32:44;;;;;;;6.70;2.20;;;;;;;11.42;100.00;100822.03;6221095;28;20050;-72
2022/10/16 03:35:52;;;;;;;2.20;1.52;;;;;;;11.41;100.00;100815.91;6221475;28;20046;-71
2022/10/16 03:38:54;;;;;;;1.35;1.20;;;;;;;11.37;100.00;100822.28;6221616;28;20054;-72
2022/10/16 03:41:55;;;;;;;4.68;1.45;;;;;;;11.38;100.00;100825.75;6221333;28;20164;-71
2022/10/16 03:44:58;;;;;;;1.48;1.35;;;;;;;11.41;100.00;100825.59;6221007;28;20046;-71
2022/10/16 03:47:59;;;;;;;5.60;1.48;;;;;;;11.41;100.00;100821.16;6221521;28;20042;-71
2022/10/16 03:51:01;;;;;;;3.47;1.85;;;;;;;11.41;100.00;100833.47;6221124;28;20061;-71
2022/10/16 03:54:03;;;;;;;3.58;1.60;;;;;;;11.42;100.00;100833.38;6220002;28;20049;-72
2022/10/16 03:57:04;;;;;;;4.28;1.70;;;;;;;11.42;100.00;100845.69;6221546;28;20050;-71
2022/10/16 04:00:08;;;;;;;4.35;1.38;;;;;;;11.37;100.00;100845.09;6221307;28;20046;-72
2022/10/16 04:03:10;;;;;;;2.63;1.75;;;;;;;11.38;100.00;100837.13;6221309;28;20050;-72
2022/10/16 04:06:11;;;;;;;4.05;1.48;;;;;;;11.38;100.00;100850.28;6224726;28;20054;-72
2022/10/16 04:09:13;;;;;;;2.60;1.75;;;;;;;11.38;100.00;100858.16;6226034;28;20060;-72
2022/10/16 04:12:14;;;;;;;2.47;1.73;;;;;;;11.40;100.00;100872.09;6225152;28;20054;-72
2022/10/16 04:15:17;;;;;;;6.20;1.65;;;;;;;11.40;100.00;100881.78;6225533;28;20490;-72
2022/10/16 04:18:18;;;;;;;5.57;1.52;;;;;;;11.36;100.00;100880.25;6225119;28;20046;-72
2022/10/16 04:21:20;;;;;;;3.00;1.40;;;;;;;11.34;100.00;100882.94;6224796;28;20049;-71
2022/10/16 04:24:21;;;;;;;1.85;1.52;;;;;;;11.37;100.00;100860.91;6224676;28;20049;-71
2022/10/16 04:27:23;;;;;;;1.85;1.30;;;;;;;11.39;100.00;100870.38;6225421;28;20073;-72
2022/10/16 04:30:25;;;;;;;1.80;1.20;;;;;;;11.40;100.00;100879.16;6224941;28;20053;-72
2022/10/16 04:33:27;;;;;;;1.98;1.33;;;;;;;11.40;100.00;100881.78;6225210;28;20438;-72
2022/10/16 04:36:28;;;;;;;1.92;1.40;;;;;;;11.39;100.00;100878.28;6224952;28;20057;-71
2022/10/16 04:39:30;;;;;;;3.25;1.63;;;;;;;11.38;100.00;100884.47;6224938;28;20050;-72
2022/10/16 04:42:31;;;;;;;6.93;1.42;;;;;;;11.37;100.00;100874.91;6224787;28;20149;-71
2022/10/16 04:45:34;;;;;;;1.77;0.90;;;;;;;11.37;100.00;100874.06;6224462;28;20413;-71
2022/10/16 04:48:35;;;;;;;2.33;1.45;;;;;;;11.40;100.00;100879.16;6225052;28;20053;-71
2022/10/16 04:51:37;;;;;;;5.22;1.63;;;;;;;11.41;100.00;100875.59;6224386;28;20056;-71
2022/10/16 04:54:38;;;;;;;2.88;2.00;;;;;;;11.41;100.00;100873.81;6224604;28;20061;-72
2022/10/16 04:57:39;;;;;;;1.80;1.30;;;;;;;11.40;100.00;100877.38;6224636;28;20053;-71
2022/10/16 05:00:42;;;;;;;1.92;1.45;;;;;;;11.40;100.00;100895.78;6224298;28;20053;-71
2022/10/16 05:03:44;;;;;;;3.00;1.73;;;;;;;11.46;100.00;100899.03;6223953;28;20061;-72
2022/10/16 05:06:45;;;;;;;2.35;1.50;;;;;;;11.48;100.00;100905.03;6224427;28;20418;-71
2022/10/16 05:09:47;;;;;;;4.30;1.50;;;;;;;11.50;100.00;100884.75;6224011;28;20053;-72
2022/10/16 05:12:48;;;;;;;2.85;1.33;;;;;;;11.48;100.00;100895.34;6224191;28;20050;-72
2022/10/16 05:15:51;;;;;;;2.78;1.35;;;;;;;11.47;100.00;100890.19;6223180;28;20052;-72
2022/10/16 05:18:53;;;;;;;5.47;1.50;;;;;;;11.46;100.00;100891.97;6224103;28;20045;-71
2022/10/16 05:21:54;;;;;;;1.85;1.23;;;;;;;11.44;100.00;100899.09;6223876;28;20054;-71
2022/10/16 05:24:56;;;;;;;2.42;1.63;;;;;;;11.41;100.00;100904.53;6223635;28;20057;-72
2022/10/16 05:27:57;;;;;;;2.75;1.60;;;;;;;11.40;100.00;100903.69;6224082;28;20060;-72
2022/10/16 05:31:04;;;;;;;2.03;1.63;;;;;;;11.41;100.00;100894.84;6223582;28;20046;-72
2022/10/16 05:34:05;;;;;;;3.78;1.63;;;;;;;11.42;100.00;100908.84;6223620;28;20049;-71
2022/10/16 05:37:07;;;;;;;3.22;1.48;;;;;;;11.41;100.00;100897.47;6223674;28;20573;-72
2022/10/16 05:40:09;;;;;;;2.75;1.27;;;;;;;11.41;100.00;100900.13;6223704;28;20053;-71
2022/10/16 05:43:11;;;;;;;3.22;1.60;;;;;;;11.45;100.00;100911.34;6223506;28;20053;-72
2022/10/16 05:46:14;;;;;;;3.03;1.33;;;;;;;11.48;100.00;100908.50;6223407;28;20065;-72
2022/10/16 05:49:15;;;;;;;2.47;1.40;;;;;;;11.51;100.00;100915.41;6223797;28;20053;-71
2022/10/16 05:52:17;;;;;;;2.47;1.25;;;;;;;11.49;100.00;100906.72;6223279;28;20140;-71
2022/10/16 05:55:19;;;;;;;1.88;1.30;;;;;;;11.45;100.00;100910.47;6223082;28;20523;-71
2022/10/16 05:58:20;;;;;;;2.97;1.70;;;;;;;11.47;100.00;100914.72;6223689;28;20046;-72
2022/10/16 06:01:24;;;;;;;1.63;1.27;;;;;;;11.49;100.00;100915.50;6223069;28;20054;-71
2022/10/16 06:04:25;;;;;;;2.53;1.23;;;;;;;11.48;100.00;100921.66;6222623;28;20469;-71
2022/10/16 06:07:26;;;;;;;4.57;1.20;;;;;;;11.50;100.00;100922.47;6223184;28;20046;-71
2022/10/16 06:10:28;;;;;;;3.67;1.52;;;;;;;11.55;100.00;100932.72;6222672;28;20056;-72
2022/10/16 06:13:30;;;;;;;2.08;1.13;;;;;;;11.61;100.00;100925.34;6223149;28;20053;-72
2022/10/16 06:16:33;;;;;;;2.95;1.63;;;;;;;11.64;100.00;100938.34;6222595;28;20076;-71
2022/10/16 06:19:35;;;;;;;2.13;1.55;;;;;;;11.63;100.00;100934.00;6223090;28;20054;-71
2022/10/16 06:22:36;;;;;;;2.78;1.20;;;;;;;11.62;100.00;100931.44;6222531;28;20061;-72
2022/10/16 06:25:38;;;;;;;1.30;1.08;;;;;;;11.62;100.00;100934.94;6222397;28;20054;-72
2022/10/16 06:28:40;;;;;;;2.33;1.02;;;;;;;11.65;100.00;100940.03;6222592;28;20062;-71
2022/10/16 06:31:42;;;;;;;5.75;1.40;;;;;;;11.66;100.00;100938.25;6222208;28;20042;-71
2022/10/16 06:34:44;;;;;;;3.90;1.23;;;;;;;11.73;100.00;100942.25;6222303;28;20054;-72
2022/10/16 06:37:45;;;;;;;1.50;1.35;;;;;;;11.78;100.00;100948.13;6222473;28;20076;-71
2022/10/16 06:40:48;;;;;;;1.15;0.80;;;;;;;11.84;100.00;100947.78;6222368;28;20049;-72
2022/10/16 06:43:50;;;;;;;1.55;1.10;;;;;;;11.89;100.00;100951.03;6221944;28;20132;-72
2022/10/16 06:46:52;;;;;;;3.40;1.20;;;;;;;11.98;100.00;100959.34;6222470;28;20057;-71
2022/10/16 06:49:54;;;;;;;1.15;1.05;;;;;;;11.99;100.00;100956.66;6221992;28;20050;-72
2022/10/16 06:52:55;;;;;;;4.63;1.17;;;;;;;12.02;100.00;100964.34;6222106;28;20359;-71
2022/10/16 06:55:57;;;;;;;1.42;0.93;;;;;;;12.05;100.00;100966.00;6221904;28;20056;-72
2022/10/16 06:58:59;;;;;;;1.60;0.80;;;;;;;12.08;100.00;100971.94;6222082;28;20052;-72
2022/10/16 07:02:01;;;;;;;1.85;1.05;;;;;;;12.12;100.00;100977.88;6221857;28;20053;-72
2022/10/16 07:05:04;;;;;;;1.30;1.05;;;;;;;12.19;100.00;100980.06;6221702;28;20061;-71
2022/10/16 07:08:05;;;;;;;1.30;0.90;;;;;;;12.25;100.00;100985.94;6222011;28;20050;-71
2022/10/16 07:11:09;;;;;;;1.40;0.95;;;;;;;12.29;100.00;100979.56;6221405;28;20057;-71
2022/10/16 07:14:16;;;;;;;3.40;1.10;;;;;;;12.34;100.00;100990.69;6221618;28;20049;-71
2022/10/16 07:17:19;;;;;;;1.40;0.90;;;;;;;12.35;100.00;100992.38;6221949;28;20136;-71
2022/10/16 07:20:20;;;;;;;0.90;0.85;;;;;;;12.34;100.00;101004.72;6221584;28;20061;-72
2022/10/16 07:23:22;;;;;;;0.52;0.52;;;;;;;12.36;100.00;101010.75;6221748;28;20068;-72
2022/10/16 07:26:24;;;;;;;1.58;1.10;;;;;;;12.39;100.00;101029.00;6221329;28;20139;-71
2022/10/16 07:29:26;;;;;;;1.48;0.90;;;;;;;12.40;100.00;101040.44;6222152;28;20133;-72
2022/10/16 07:32:28;;;;;;;1.58;0.90;;;;;;;12.38;100.00;101042.28;6221606;28;20053;-72
2022/10/16 07:35:30;;;;;;;1.52;0.90;;;;;;;12.35;100.00;101048.59;6221520;28;20054;-72
2022/10/16 07:38:31;;;;;;;3.47;0.80;;;;;;;12.37;100.00;101056.41;6221636;28;20088;-71
2022/10/16 07:41:36;;;;;;;1.17;0.80;;;;;;;12.35;100.00;101058.25;6225472;28;20060;-71
2022/10/16 07:44:37;;;;;;;1.33;0.90;;;;;;;12.36;100.00;101063.47;6225657;28;20520;-72
2022/10/16 07:47:40;;;;;;;3.85;0.88;;;;;;;12.33;100.00;101066.25;6226445;28;20053;-72
2022/10/16 07:50:42;;;;;;;2.33;0.88;;;;;;;12.34;100.00;101069.75;6225897;28;20050;-71
2022/10/16 07:53:43;;;;;;;0.93;0.85;;;;;;;12.30;100.00;101070.84;6225606;28;20080;-72
2022/10/16 07:56:45;;;;;;;0.70;0.70;;;;;;;12.27;100.00;101081.56;6226215;28;20133;-72
2022/10/16 07:59:46;;;;;;;0.82;0.63;;;;;;;12.30;100.00;101078.75;6225992;28;20048;-72
2022/10/16 08:02:49;;;;;;;0.85;0.70;;;;;;;12.34;100.00;101082.91;6221761;28;20088;-72
2022/10/16 08:05:51;;;;;;;0.90;0.80;;;;;;;12.35;100.00;101085.50;6225374;28;20080;-72
2022/10/16 08:08:52;;;;;;;1.00;0.70;;;;;;;12.40;100.00;101096.63;6225755;28;20077;-72
2022/10/16 08:11:54;;;;;;;1.65;0.70;;;;;;;12.48;100.00;101084.78;6225194;28;20050;-72
2022/10/16 08:14:55;;;;;;;1.98;0.60;;;;;;;12.67;100.00;101106.53;6225477;28;20049;-72
2022/10/16 08:17:59;;;;;;;0.60;0.60;;;;;;;12.82;100.00;101124.16;6223500;28;20432;-72
2022/10/16 08:21:01;;;;;;;1.20;0.77;;;;;;;13.06;100.00;101116.63;6223111;28;20053;-72
2022/10/16 08:24:03;;;;;;;3.67;1.00;;;;;;;13.20;100.00;101129.88;6224479;28;20124;-72
2022/10/16 08:27:04;;;;;;;2.05;0.90;;;;;;;13.43;100.00;101132.97;6224883;28;20050;-71
2022/10/16 08:30:06;;;;;;;0.65;0.55;;;;;;;13.58;100.00;101145.28;6222253;28;20050;-72
2022/10/16 08:33:09;;;;;;;0.65;0.57;;;;;;;13.69;100.00;101132.28;6225243;28;20046;-72
2022/10/16 08:36:12;;;;;;;0.60;0.50;;;;;;;13.69;100.00;101142.84;6224382;28;20414;-73
2022/10/16 08:39:13;;;;;;;3.00;0.95;;;;;;;13.70;100.00;101146.34;6223214;28;20523;-72
2022/10/16 08:42:30;;;;;;;4.13;0.93;;;;;;;13.73;100.00;101140.88;6224703;28;20046;-72
2022/10/16 08:45:47;;;;;;;1.60;0.70;;;;;;;13.74;100.00;101141.72;6224560;28;20116;-72
2022/10/16 08:48:52;;;;;;;2.38;1.02;;;;;;;13.87;100.00;101148.81;6224542;28;20053;-72
2022/10/16 08:51:53;;;;;;;2.38;0.70;;;;;;;13.94;100.00;101154.56;6223203;28;20050;-72
2022/10/16 08:54:56;;;;;;;0.68;0.57;;;;;;;14.10;100.00;101154.47;6224391;28;20046;-70
2022/10/16 08:57:58;;;;;;;2.20;1.40;;;;;;;14.17;100.00;101150.50;6224849;28;20053;-72
2022/10/16 09:01:01;;;;;;;1.45;0.70;;;;;;;14.21;100.00;101159.94;6220065;28;20049;-72
2022/10/16 09:04:36;;;;;;;0.50;0.50;;;;;;;14.28;100.00;101156.00;6215688;28;20046;-72
2022/10/16 09:07:47;;;;;;;5.85;0.80;;;;;;;14.33;100.00;101164.47;6224077;28;20620;-73
2022/10/16 09:10:58;;;;;;;1.42;0.80;;;;;;;14.37;100.00;101176.56;6224186;28;20053;-72
2022/10/16 09:14:07;;;;;;;0.50;0.50;;;;;;;14.51;100.00;101174.88;6223798;28;20054;-72
2022/10/16 09:17:23;;;;;;;0.57;0.57;;;;;;;14.60;100.00;101174.31;6224561;28;20050;-71
2022/10/16 09:20:35;;;;;;;1.42;0.90;;;;;;;14.72;100.00;101176.19;6223641;28;20416;-72
2022/10/16 09:23:38;;;;;;;1.05;0.75;;;;;;;14.70;100.00;101181.56;6224330;28;20136;-72
2022/10/16 09:26:39;;;;;;;1.02;0.82;;;;;;;14.65;100.00;101178.34;6223507;28;20129;-72
2022/10/16 09:29:41;;;;;;;1.38;0.77;;;;;;;14.65;100.00;101182.81;6223749;28;20052;-72
2022/10/16 09:32:45;;;;;;;0.85;0.65;;;;;;;14.69;100.00;101184.31;6223571;28;20056;-72
2022/10/16 09:35:50;;;;;;;0.70;0.70;;;;;;;14.84;100.00;101193.06;6223392;28;20050;-74
2022/10/16 09:39:03;;;;;;;2.15;0.82;;;;;;;14.94;100.00;101184.44;6221625;28;20057;-74
2022/10/16 09:42:05;;;;;;;2.13;1.02;;;;;;;14.98;100.00;101199.16;6219265;28;20046;-74
2022/10/16 09:45:20;;;;;;;0.60;0.60;;;;;;;15.01;100.00;101195.47;6202888;28;20560;-72
2022/10/16 09:48:23;;;;;;;1.02;0.80;;;;;;;15.02;100.00;101202.47;6199439;28;20054;-74
2022/10/16 09:51:28;;;;;;;0.68;0.68;;;;;;;15.03;100.00;101198.84;6198748;28;20057;-74
2022/10/16 09:54:29;;;;;;;3.65;1.65;;;;;;;15.08;100.00;101199.44;6198475;28;20514;-72
2022/10/16 09:57:30;;;;;;;1.00;0.90;;;;;;;15.13;100.00;101199.13;6199019;28;20054;-72
2022/10/16 10:00:32;;;;;;;1.70;1.23;;;;;;;15.13;100.00;101196.47;6198780;28;20046;-71
2022/10/16 10:03:39;;;;;;;3.38;1.20;;;;;;;15.16;100.00;101198.91;6198381;28;20064;-72
2022/10/16 10:06:45;;;;;;;1.70;1.30;;;;;;;15.20;100.00;101200.41;6198551;28;20046;-75
2022/10/16 10:09:47;;;;;;;1.50;1.20;;;;;;;15.32;100.00;101196.13;6211932;28;20050;-72
2022/10/16 10:12:49;;;;;;;1.45;1.20;;;;;;;15.38;100.00;101188.59;6221091;28;20073;-72
2022/10/16 10:15:53;;;;;;;2.33;1.35;;;;;;;15.39;100.00;101208.00;6198381;28;20054;-72
2022/10/16 10:18:59;;;;;;;1.92;1.23;;;;;;;15.48;100.00;101199.44;6198324;28;20050;-72
2022/10/16 10:22:02;;;;;;;2.42;1.60;;;;;;;15.62;100.00;101207.31;6198241;28;20050;-73
2022/10/16 10:25:25;;;;;;;2.03;1.70;;;;;;;15.66;100.00;101211.47;6197996;28;20056;-72
2022/10/16 10:28:43;;;;;;;0.90;0.80;;;;;;;15.81;100.00;101206.13;6198532;28;20050;-72
2022/10/16 10:31:52;;;;;;;1.05;0.95;;;;;;;15.89;100.00;101220.53;6200807;28;20056;-72
2022/10/16 10:35:07;;;;;;;2.35;1.23;;;;;;;15.91;100.00;101226.59;6217958;28;20062;-72
2022/10/16 10:38:23;;;;;;;0.90;0.90;;;;;;;16.04;100.00;101234.56;6216091;28;20057;-71
2022/10/16 10:42:07;;;;;;;1.10;1.00;;;;;;;16.12;99.26;101229.56;6219953;28;20062;-72
2022/10/16 10:45:23;;;;;;;2.17;1.20;;;;;;;16.14;98.82;101235.63;6217261;28;20052;-74
2022/10/16 10:48:48;;;;;;;1.92;0.80;;;;;;;16.16;98.21;101239.00;6220070;28;20042;-72
2022/10/16 10:52:02;;;;;;;1.55;1.30;;;;;;;16.15;98.21;101247.06;6220434;28;20054;-72
2022/10/16 10:55:14;;;;;;;0.93;0.85;;;;;;;16.13;96.99;101247.19;6222156;28;20080;-72
2022/10/16 10:58:45;;;;;;;4.30;0.95;;;;;;;16.09;98.33;101242.19;6222129;28;20041;-74
2022/10/16 11:01:54;;;;;;;1.25;0.98;;;;;;;16.19;96.67;101251.22;6218713;28;20050;-71
2022/10/16 11:05:17;;;;;;;0.73;0.73;;;;;;;16.16;97.08;101259.38;6216524;28;20053;-72
2022/10/16 11:08:21;;;;;;;3.75;2.65;;;;;;;16.08;99.01;101267.88;6200274;28;20043;-72
2022/10/16 11:11:31;;;;;;;2.28;0.88;;;;;;;16.03;100.00;101269.94;6219368;28;20049;-73
2022/10/16 11:14:39;;;;;;;4.40;0.80;;;;;;;16.04;97.46;101253.13;6222239;28;20052;-72
2022/10/16 11:17:46;;;;;;;2.33;0.88;;;;;;;16.06;97.65;101266.25;6226442;28;20540;-72
2022/10/16 11:20:53;;;;;;;1.17;0.70;;;;;;;15.97;97.56;101263.28;6225653;28;20038;-71
2022/10/16 11:24:01;;;;;;;1.25;0.70;;;;;;;15.98;98.82;101267.63;6225946;28;20050;-72
2022/10/16 11:27:09;;;;;;;1.30;0.60;;;;;;;16.30;96.74;101261.06;6224778;28;20390;-72
2022/10/16 11:30:19;;;;;;;4.30;1.02;;;;;;;16.63;96.51;101263.19;6205947;28;20517;-71
2022/10/16 11:33:31;;;;;;;0.85;0.47;;;;;;;16.85;93.71;101265.19;6202300;28;20053;-72
2022/10/16 11:36:38;;;;;;;5.50;0.73;;;;;;;17.05;92.15;101264.63;6202142;28;20050;-72
2022/10/16 11:39:42;;;;;;;2.50;0.60;;;;;;;17.08;91.15;101277.69;6201942;28;20047;-71
2022/10/16 11:42:51;;;;;;;1.20;0.80;;;;;;;17.31;88.74;101273.34;6202226;28;20061;-71
2022/10/16 11:45:54;;;;;;;;;;;;;;;17.53;87.81;101275.25;6202155;28;20062;-71
2022/10/16 11:49:01;;;;;;;1.25;0.50;;;;;;;17.64;87.86;101279.78;6201837;28;20305;-72
2022/10/16 11:52:12;;;;;;;2.15;0.70;;;;;;;17.56;84.50;101283.00;6201630;28;20061;-71
2022/10/16 11:55:18;;;;;;;2.05;0.60;;;;;;;17.64;86.44;101290.41;6201387;28;20049;-70
2022/10/16 11:58:30;;;;;;;1.15;0.60;;;;;;;17.49;86.28;101287.09;6201828;28;20434;-72
2022/10/16 12:01:40;;;;;;;3.15;0.50;;;;;;;17.32;86.57;101285.66;6201469;28;20061;-72
2022/10/16 12:04:46;;;;;;;4.47;0.60;;;;;;;17.36;85.86;101288.97;6212311;28;20062;-70
2022/10/16 12:07:56;;;;;;;1.45;0.82;;;;;;;17.42;84.04;101289.34;6225813;28;20414;-71
2022/10/16 12:11:08;;;;;;;1.67;0.60;;;;;;;17.19;85.65;101295.50;6225224;28;20485;-72
2022/10/16 12:14:34;;;;;;;1.42;0.60;;;;;;;17.04;85.64;101304.56;6225253;28;20061;-72
2022/10/16 12:17:38;;;;;;;3.63;0.68;;;;;;;16.95;83.86;101292.78;6225671;28;20077;-71
2022/10/16 12:20:45;;;;;;;1.42;0.70;;;;;;;16.87;85.34;101295.13;6225243;28;20417;-72
2022/10/16 12:23:51;;;;;;;0.47;0.40;;;;;;;16.87;85.86;101303.94;6225010;28;20052;-72
2022/10/16 12:26:54;;;;;;;1.75;0.57;;;;;;;16.87;85.29;101308.41;6224698;28;20049;-71
2022/10/16 12:29:59;;;;;;;0.85;0.85;;;;;;;16.99;83.72;101312.88;6224736;28;20065;-71
2022/10/16 12:33:03;;;;;;;0.52;0.38;;;;;;;17.07;85.13;101314.94;6225304;28;20053;-71
2022/10/16 12:36:13;;;;;;;0.38;0.38;;;;;;;17.03;82.97;101310.81;6224618;28;20054;-72
2022/10/16 12:39:22;;;;;;;0.95;0.50;;;;;;;17.10;83.69;101309.44;6222543;28;20053;-72
2022/10/16 12:42:33;;;;;;;3.33;0.85;;;;;;;17.02;83.83;101320.59;6224418;28;20060;-71
2022/10/16 12:45:36;;;;;;;0.40;0.35;;;;;;;17.11;83.95;101325.25;6224743;28;20049;-71
2022/10/16 12:48:40;;;;;;;1.27;0.55;;;;;;;17.14;84.73;101321.53;6224994;28;20056;-72
2022/10/16 12:51:43;;;;;;;2.00;0.45;;;;;;;17.35;83.33;101330.63;6224601;28;20131;-72
2022/10/16 12:54:44;;;;;;;0.45;0.40;;;;;;;17.56;82.92;101330.00;6224477;28;20127;-71
2022/10/16 12:58:01;;;;;;;0.80;0.52;;;;;;;17.73;81.90;101326.94;6224921;28;20080;-71
2022/10/16 13:01:13;;;;;;;0.50;0.50;;;;;;;17.91;80.22;101325.63;6224330;28;20124;-72
2022/10/16 13:04:33;;;;;;;3.03;0.52;;;;;;;18.21;77.37;101324.25;6224213;28;20057;-72
2022/10/16 13:07:49;;;;;;;1.63;0.40;;;;;;;18.45;77.90;101329.53;6224309;28;20046;-71
2022/10/16 13:11:03;;;;;;;0.85;0.60;;;;;;;18.83;77.49;101329.22;6224067;28;20512;-72
2022/10/16 13:14:30;;;;;;;1.00;0.40;;;;;;;19.10;74.11;101325.34;6224100;28;20053;-72
2022/10/16 13:17:40;;;;;;;0.85;0.68;;;;;;;19.20;72.47;101329.78;6224295;28;20077;-72
2022/10/16 13:20:57;;;;;;;0.22;0.22;;;;;;;19.23;72.34;101328.72;6224057;28;20042;-72
2022/10/16 13:24:08;;;;;;;0.90;0.30;;;;;;;19.46;70.23;101335.69;6223698;28;20049;-72
2022/10/16 13:27:19;;;;;;;0.65;0.45;;;;;;;19.36;70.67;101337.41;6224291;28;20049;-72
2022/10/16 13:30:25;;;;;;;1.58;0.40;;;;;;;19.21;69.60;101352.81;6223575;28;20386;-71
2022/10/16 13:33:33;;;;;;;0.40;0.30;;;;;;;18.95;71.25;101343.38;6224068;28;20057;-72
2022/10/16 13:36:43;;;;;;;0.77;0.40;;;;;;;18.97;71.55;101358.25;6223059;28;20413;-72
2022/10/16 13:39:45;;;;;;;0.82;0.30;;;;;;;19.05;74.22;101362.16;6223645;28;20045;-72
2022/10/16 13:42:46;;;;;;;4.03;0.68;;;;;;;19.03;72.83;101367.63;6223481;28;20131;-72
2022/10/16 13:46:07;;;;;;;0.30;0.30;;;;;;;18.68;72.62;101349.88;6223247;28;20421;-72
2022/10/16 13:49:16;;;;;;;1.67;0.30;;;;;;;18.34;74.19;101358.75;6223426;28;20049;-72
2022/10/16 13:52:18;;;;;;;;;;;;;;;18.17;75.71;101357.41;6223804;28;20050;-72
2022/10/16 13:55:19;;;;;;;0.52;0.28;;;;;;;18.09;74.68;101365.94;6223000;28;20420;-72
2022/10/16 13:58:21;;;;;;;0.45;0.30;;;;;;;18.21;75.91;101366.81;6223567;28;20050;-72
2022/10/16 14:01:26;;;;;;;1.08;0.70;;;;;;;18.20;74.41;101371.28;6222803;28;20439;-71
2022/10/16 14:04:33;;;;;;;1.63;0.38;;;;;;;18.25;72.80;101374.44;6222622;28;20046;-72
2022/10/16 14:07:36;;;;;;;5.90;3.13;;;;;;;18.30;74.29;101381.22;6223183;28;20046;-72
2022/10/16 14:10:37;;;;;;;2.72;0.68;;;;;;;18.23;73.26;101375.53;6222924;28;20054;-72
2022/10/16 14:13:43;;;;;;;2.30;0.50;;;;;;;18.19;74.75;101387.38;6221792;28;20041;-72